sensor_id;sensor_type;location;lat;lon;timestamp;pressure;altitude;pressure_sealevel;temperature;humidity
58295;BME280;45705;55.592;37.460;2022-07-29T00:01:47;99181.50;;;16.12;93.87
58295;BME280;45705;55.592;37.460;2022-07-29T00:04:13;99181.78;;;16.07;94.07
58295;BME280;45705;55.592;37.460;2022-07-29T00:06:39;99186.34;;;16.03;94.72
58295;BME280;45705;55.592;37.460;2022-07-29T00:09:05;99175.16;;;15.96;94.65
58295;BME280;45705;55.592;37.460;2022-07-29T00:11:30;99188.16;;;15.87;94.82
58295;BME280;45705;55.592;37.460;2022-07-29T00:13:56;99187.25;;;15.83;95.37
58295;BME280;45705;55.592;37.460;2022-07-29T00:16:22;99186.56;;;15.86;94.96
58295;BME280;45705;55.592;37.460;2022-07-29T00:18:48;99188.50;;;15.73;94.95
58295;BME280;45705;55.592;37.460;2022-07-29T00:21:14;99194.09;;;15.77;95.63
58295;BME280;45705;55.592;37.460;2022-07-29T00:23:40;99195.31;;;15.67;95.95
58295;BME280;45705;55.592;37.460;2022-07-29T00:26:06;99191.44;;;15.68;95.08
58295;BME280;45705;55.592;37.460;2022-07-29T00:28:31;99199.06;;;15.62;95.39
58295;BME280;45705;55.592;37.460;2022-07-29T00:33:38;99195.66;;;15.53;95.80
58295;BME280;45705;55.592;37.460;2022-07-29T00:36:04;99199.53;;;15.52;96.74
58295;BME280;45705;55.592;37.460;2022-07-29T00:38:30;99195.19;;;15.51;96.63
58295;BME280;45705;55.592;37.460;2022-07-29T00:40:56;99196.63;;;15.36;97.29
58295;BME280;45705;55.592;37.460;2022-07-29T00:43:21;99204.28;;;15.30;97.74
58295;BME280;45705;55.592;37.460;2022-07-29T00:45:47;99208.41;;;15.49;98.38
58295;BME280;45705;55.592;37.460;2022-07-29T00:48:13;99204.84;;;15.36;98.63
58295;BME280;45705;55.592;37.460;2022-07-29T00:50:39;99206.56;;;15.28;98.82
58295;BME280;45705;55.592;37.460;2022-07-29T00:53:08;99209.94;;;15.25;98.98
58295;BME280;45705;55.592;37.460;2022-07-29T00:55:35;99214.75;;;15.16;99.66
58295;BME280;45705;55.592;37.460;2022-07-29T00:58:01;99220.22;;;15.16;100.00
58295;BME280;45705;55.592;37.460;2022-07-29T01:00:28;99216.31;;;15.17;100.00
58295;BME280;45705;55.592;37.460;2022-07-29T01:02:54;99215.13;;;15.06;100.00
58295;BME280;45705;55.592;37.460;2022-07-29T01:05:22;99216.00;;;15.19;100.00
58295;BME280;45705;55.592;37.460;2022-07-29T01:07:51;99215.53;;;15.16;100.00
58295;BME280;45705;55.592;37.460;2022-07-29T01:10:19;99212.88;;;15.08;100.00
58295;BME280;45705;55.592;37.460;2022-07-29T01:12:48;99225.16;;;15.02;100.00
58295;BME280;45705;55.592;37.460;2022-07-29T01:15:14;99212.81;;;14.95;100.00
58295;BME280;45705;55.592;37.460;2022-07-29T01:20:25;99230.59;;;14.89;100.00
58295;BME280;45705;55.592;37.460;2022-07-29T01:23:08;99228.00;;;14.93;100.00
58295;BME280;45705;55.592;37.460;2022-07-29T01:28:39;99225.78;;;14.86;100.00
58295;BME280;45705;55.592;37.460;2022-07-29T01:31:10;99231.59;;;14.85;100.00
58295;BME280;45705;55.592;37.460;2022-07-29T01:33:41;99227.59;;;14.82;100.00
58295;BME280;45705;55.592;37.460;2022-07-29T01:36:19;99222.78;;;14.79;100.00
58295;BME280;45705;55.592;37.460;2022-07-29T01:39:01;99221.84;;;14.75;100.00
58295;BME280;45705;55.592;37.460;2022-07-29T01:41:30;99219.19;;;14.87;100.00
58295;BME280;45705;55.592;37.460;2022-07-29T01:44:02;99216.63;;;14.82;100.00
58295;BME280;45705;55.592;37.460;2022-07-29T01:46:37;99228.25;;;14.79;100.00
58295;BME280;45705;55.592;37.460;2022-07-29T01:49:29;99225.25;;;14.72;100.00
58295;BME280;45705;55.592;37.460;2022-07-29T01:52:11;99225.25;;;14.72;100.00
58295;BME280;45705;55.592;37.460;2022-07-29T01:54:41;99230.06;;;14.75;100.00
58295;BME280;45705;55.592;37.460;2022-07-29T01:57:09;99238.16;;;14.71;100.00
58295;BME280;45705;55.592;37.460;2022-07-29T01:59:37;99235.75;;;14.70;100.00
58295;BME280;45705;55.592;37.460;2022-07-29T02:02:04;99238.72;;;14.77;100.00
58295;BME280;45705;55.592;37.460;2022-07-29T02:04:35;99234.41;;;14.76;100.00
58295;BME280;45705;55.592;37.460;2022-07-29T02:07:05;99236.41;;;14.67;100.00
58295;BME280;45705;55.592;37.460;2022-07-29T02:09:33;99232.88;;;14.66;100.00
58295;BME280;45705;55.592;37.460;2022-07-29T02:12:02;99231.16;;;14.53;100.00
58295;BME280;45705;55.592;37.460;2022-07-29T02:14:34;99235.47;;;14.63;100.00
58295;BME280;45705;55.592;37.460;2022-07-29T02:17:02;99231.63;;;14.64;100.00
58295;BME280;45705;55.592;37.460;2022-07-29T02:19:29;99237.56;;;14.66;100.00
58295;BME280;45705;55.592;37.460;2022-07-29T02:21:57;99234.81;;;14.66;100.00
58295;BME280;45705;55.592;37.460;2022-07-29T02:24:25;99239.13;;;14.67;100.00
58295;BME280;45705;55.592;37.460;2022-07-29T02:26:52;99234.34;;;14.64;100.00
58295;BME280;45705;55.592;37.460;2022-07-29T02:29:21;99244.78;;;14.62;100.00
58295;BME280;45705;55.592;37.460;2022-07-29T02:31:49;99244.28;;;14.68;100.00
58295;BME280;45705;55.592;37.460;2022-07-29T02:34:17;99253.25;;;14.77;100.00
58295;BME280;45705;55.592;37.460;2022-07-29T02:36:45;99236.69;;;14.74;100.00
58295;BME280;45705;55.592;37.460;2022-07-29T02:39:12;99239.69;;;14.81;100.00
58295;BME280;45705;55.592;37.460;2022-07-29T02:41:46;99244.00;;;14.82;100.00
58295;BME280;45705;55.592;37.460;2022-07-29T02:44:16;99243.09;;;14.78;100.00
58295;BME280;45705;55.592;37.460;2022-07-29T02:46:46;99243.22;;;14.82;100.00
58295;BME280;45705;55.592;37.460;2022-07-29T02:49:27;99234.00;;;14.86;100.00
58295;BME280;45705;55.592;37.460;2022-07-29T02:52:09;99230.38;;;14.94;100.00
58295;BME280;45705;55.592;37.460;2022-07-29T02:54:58;99238.38;;;15.00;100.00
58295;BME280;45705;55.592;37.460;2022-07-29T02:57:47;99242.63;;;14.97;100.00
58295;BME280;45705;55.592;37.460;2022-07-29T03:00:15;99238.66;;;15.07;99.66
58295;BME280;45705;55.592;37.460;2022-07-29T03:02:44;99239.13;;;15.09;98.66
58295;BME280;45705;55.592;37.460;2022-07-29T03:05:17;99236.13;;;15.02;97.42
58295;BME280;45705;55.592;37.460;2022-07-29T03:07:47;99231.50;;;15.14;96.61
58295;BME280;45705;55.592;37.460;2022-07-29T03:10:14;99226.31;;;15.34;95.28
58295;BME280;45705;55.592;37.460;2022-07-29T03:12:41;99227.03;;;15.43;93.79
58295;BME280;45705;55.592;37.460;2022-07-29T03:15:08;99233.06;;;15.49;92.60
58295;BME280;45705;55.592;37.460;2022-07-29T03:17:34;99229.47;;;15.57;91.35
58295;BME280;45705;55.592;37.460;2022-07-29T03:20:01;99234.50;;;15.67;89.99
58295;BME280;45705;55.592;37.460;2022-07-29T03:22:29;99234.88;;;15.45;89.96
58295;BME280;45705;55.592;37.460;2022-07-29T03:24:55;99231.03;;;15.58;90.00
58295;BME280;45705;55.592;37.460;2022-07-29T03:27:20;99234.03;;;15.53;89.87
58295;BME280;45705;55.592;37.460;2022-07-29T03:29:46;99221.13;;;15.66;90.04
58295;BME280;45705;55.592;37.460;2022-07-29T03:32:12;99233.81;;;15.70;89.01
58295;BME280;45705;55.592;37.460;2022-07-29T03:34:38;99242.75;;;15.80;88.90
58295;BME280;45705;55.592;37.460;2022-07-29T03:37:05;99232.75;;;17.14;83.04
58295;BME280;45705;55.592;37.460;2022-07-29T03:39:35;99233.53;;;19.32;69.51
58295;BME280;45705;55.592;37.460;2022-07-29T03:42:04;99228.41;;;20.23;63.22
58295;BME280;45705;55.592;37.460;2022-07-29T03:44:31;99226.50;;;21.14;59.25
58295;BME280;45705;55.592;37.460;2022-07-29T03:46:59;99225.88;;;21.66;56.73
58295;BME280;45705;55.592;37.460;2022-07-29T03:49:27;99230.06;;;22.41;54.92
58295;BME280;45705;55.592;37.460;2022-07-29T03:51:54;99226.31;;;22.86;52.79
58295;BME280;45705;55.592;37.460;2022-07-29T03:54:19;99238.19;;;22.83;51.79
58295;BME280;45705;55.592;37.460;2022-07-29T03:56:46;99245.00;;;22.99;50.83
58295;BME280;45705;55.592;37.460;2022-07-29T03:59:15;99239.19;;;23.23;50.17
58295;BME280;45705;55.592;37.460;2022-07-29T04:01:43;99245.63;;;24.06;48.29
58295;BME280;45705;55.592;37.460;2022-07-29T04:04:10;99247.22;;;24.00;47.83
58295;BME280;45705;55.592;37.460;2022-07-29T04:06:43;99247.19;;;24.50;46.83
58295;BME280;45705;55.592;37.460;2022-07-29T04:09:10;99247.81;;;25.11;44.82
58295;BME280;45705;55.592;37.460;2022-07-29T04:11:38;99249.97;;;24.64;45.76
58295;BME280;45705;55.592;37.460;2022-07-29T04:14:04;99252.59;;;25.07;45.16
58295;BME280;45705;55.592;37.460;2022-07-29T04:16:30;99248.59;;;26.35;42.55
58295;BME280;45705;55.592;37.460;2022-07-29T04:18:56;99240.22;;;27.41;39.11
58295;BME280;45705;55.592;37.460;2022-07-29T04:21:22;99247.31;;;26.46;40.29
58295;BME280;45705;55.592;37.460;2022-07-29T04:23:47;99248.84;;;26.89;39.94
58295;BME280;45705;55.592;37.460;2022-07-29T04:26:17;99246.25;;;26.29;40.84
58295;BME280;45705;55.592;37.460;2022-07-29T04:28:43;99251.75;;;27.13;39.56
58295;BME280;45705;55.592;37.460;2022-07-29T04:31:10;99252.06;;;26.87;40.05
58295;BME280;45705;55.592;37.460;2022-07-29T04:33:36;99258.72;;;26.59;39.86
58295;BME280;45705;55.592;37.460;2022-07-29T04:36:02;99246.81;;;27.24;39.24
58295;BME280;45705;55.592;37.460;2022-07-29T04:38:28;99254.69;;;27.91;37.33
58295;BME280;45705;55.592;37.460;2022-07-29T04:40:54;99252.66;;;28.62;36.25
58295;BME280;45705;55.592;37.460;2022-07-29T04:43:19;99254.53;;;28.69;36.08
58295;BME280;45705;55.592;37.460;2022-07-29T04:46:06;99264.19;;;27.66;38.38
58295;BME280;45705;55.592;37.460;2022-07-29T04:48:32;99257.53;;;27.83;37.54
58295;BME280;45705;55.592;37.460;2022-07-29T04:50:58;99258.53;;;28.44;37.18
58295;BME280;45705;55.592;37.460;2022-07-29T04:53:24;99252.25;;;29.23;36.27
58295;BME280;45705;55.592;37.460;2022-07-29T04:55:51;99259.72;;;28.46;36.53
58295;BME280;45705;55.592;37.460;2022-07-29T04:58:17;99257.19;;;30.21;33.17
58295;BME280;45705;55.592;37.460;2022-07-29T05:00:43;99263.22;;;28.94;34.66
58295;BME280;45705;55.592;37.460;2022-07-29T05:03:09;99253.34;;;29.82;35.22
58295;BME280;45705;55.592;37.460;2022-07-29T05:05:35;99255.84;;;29.60;34.47
58295;BME280;45705;55.592;37.460;2022-07-29T05:08:00;99249.59;;;30.68;32.21
58295;BME280;45705;55.592;37.460;2022-07-29T05:10:26;99265.25;;;30.19;32.59
58295;BME280;45705;55.592;37.460;2022-07-29T05:12:52;99259.53;;;30.85;32.09
58295;BME280;45705;55.592;37.460;2022-07-29T05:15:18;99260.06;;;30.80;31.79
58295;BME280;45705;55.592;37.460;2022-07-29T05:17:44;99257.66;;;30.66;32.34
58295;BME280;45705;55.592;37.460;2022-07-29T05:20:10;99260.78;;;30.38;33.11
58295;BME280;45705;55.592;37.460;2022-07-29T05:22:35;99254.44;;;30.96;31.89
58295;BME280;45705;55.592;37.460;2022-07-29T05:25:01;99256.31;;;30.08;32.94
58295;BME280;45705;55.592;37.460;2022-07-29T05:27:28;99259.63;;;30.03;32.82
58295;BME280;45705;55.592;37.460;2022-07-29T05:29:54;99257.00;;;30.29;33.60
58295;BME280;45705;55.592;37.460;2022-07-29T05:32:20;99263.84;;;29.78;33.54
58295;BME280;45705;55.592;37.460;2022-07-29T05:34:45;99265.09;;;28.81;35.48
58295;BME280;45705;55.592;37.460;2022-07-29T05:37:11;99265.00;;;28.41;36.54
58295;BME280;45705;55.592;37.460;2022-07-29T05:39:39;99269.94;;;27.82;36.87
58295;BME280;45705;55.592;37.460;2022-07-29T05:42:09;99253.81;;;29.61;34.60
58295;BME280;45705;55.592;37.460;2022-07-29T05:44:39;99244.22;;;30.11;32.68
58295;BME280;45705;55.592;37.460;2022-07-29T05:47:05;99239.31;;;31.32;30.96
58295;BME280;45705;55.592;37.460;2022-07-29T05:49:32;99249.03;;;30.27;32.39
58295;BME280;45705;55.592;37.460;2022-07-29T05:51:58;99243.63;;;31.50;29.92
58295;BME280;45705;55.592;37.460;2022-07-29T05:54:24;99246.59;;;31.43;30.47
58295;BME280;45705;55.592;37.460;2022-07-29T05:56:50;99243.53;;;31.11;30.47
58295;BME280;45705;55.592;37.460;2022-07-29T05:59:15;99242.00;;;32.00;29.54
58295;BME280;45705;55.592;37.460;2022-07-29T06:01:41;99243.94;;;33.17;27.93
58295;BME280;45705;55.592;37.460;2022-07-29T06:04:07;99249.06;;;33.31;27.47
58295;BME280;45705;55.592;37.460;2022-07-29T06:06:34;99248.66;;;33.51;27.10
58295;BME280;45705;55.592;37.460;2022-07-29T06:09:00;99240.75;;;32.84;27.61
58295;BME280;45705;55.592;37.460;2022-07-29T06:11:26;99251.75;;;32.34;28.83
58295;BME280;45705;55.592;37.460;2022-07-29T06:13:52;99251.03;;;30.43;31.62
58295;BME280;45705;55.592;37.460;2022-07-29T06:16:18;99253.75;;;30.76;31.71
58295;BME280;45705;55.592;37.460;2022-07-29T06:18:44;99244.13;;;30.77;31.20
58295;BME280;45705;55.592;37.460;2022-07-29T06:21:10;99246.13;;;32.34;28.90
58295;BME280;45705;55.592;37.460;2022-07-29T06:23:37;99253.69;;;30.34;31.23
58295;BME280;45705;55.592;37.460;2022-07-29T06:26:03;99241.19;;;32.25;27.97
58295;BME280;45705;55.592;37.460;2022-07-29T06:28:29;99243.59;;;31.75;28.50
58295;BME280;45705;55.592;37.460;2022-07-29T06:30:55;99229.69;;;31.72;28.22
58295;BME280;45705;55.592;37.460;2022-07-29T06:33:21;99235.25;;;32.45;27.71
58295;BME280;45705;55.592;37.460;2022-07-29T06:35:47;99238.41;;;33.35;25.83
58295;BME280;45705;55.592;37.460;2022-07-29T06:38:13;99235.13;;;32.62;27.29
58295;BME280;45705;55.592;37.460;2022-07-29T06:40:43;99225.00;;;33.49;26.96
58295;BME280;45705;55.592;37.460;2022-07-29T06:43:34;99233.47;;;31.91;27.53
58295;BME280;45705;55.592;37.460;2022-07-29T06:46:07;99226.03;;;32.58;28.70
58295;BME280;45705;55.592;37.460;2022-07-29T06:48:35;99226.66;;;33.06;25.65
58295;BME280;45705;55.592;37.460;2022-07-29T06:51:03;99231.09;;;33.79;25.11
58295;BME280;45705;55.592;37.460;2022-07-29T06:53:29;99229.38;;;32.52;26.58
58295;BME280;45705;55.592;37.460;2022-07-29T06:55:56;99227.94;;;31.23;27.94
58295;BME280;45705;55.592;37.460;2022-07-29T06:58:23;99232.13;;;31.31;27.78
58295;BME280;45705;55.592;37.460;2022-07-29T07:00:55;99230.50;;;32.55;25.70
58295;BME280;45705;55.592;37.460;2022-07-29T07:03:22;99235.31;;;31.72;26.58
58295;BME280;45705;55.592;37.460;2022-07-29T07:05:48;99229.56;;;31.50;27.37
58295;BME280;45705;55.592;37.460;2022-07-29T07:08:14;99234.06;;;31.86;26.37
58295;BME280;45705;55.592;37.460;2022-07-29T07:10:42;99243.16;;;30.38;28.45
58295;BME280;45705;55.592;37.460;2022-07-29T07:13:08;99253.69;;;28.92;31.21
58295;BME280;45705;55.592;37.460;2022-07-29T07:15:35;99244.38;;;29.55;30.81
58295;BME280;45705;55.592;37.460;2022-07-29T07:18:02;99240.13;;;30.32;29.69
58295;BME280;45705;55.592;37.460;2022-07-29T07:20:28;99246.66;;;28.63;32.04
58295;BME280;45705;55.592;37.460;2022-07-29T07:22:53;99254.81;;;27.80;33.96
58295;BME280;45705;55.592;37.460;2022-07-29T07:25:19;99245.63;;;29.34;30.86
58295;BME280;45705;55.592;37.460;2022-07-29T07:27:45;99242.47;;;30.01;30.12
58295;BME280;45705;55.592;37.460;2022-07-29T07:30:11;99239.91;;;30.69;29.58
58295;BME280;45705;55.592;37.460;2022-07-29T07:32:37;99243.25;;;29.32;29.45
58295;BME280;45705;55.592;37.460;2022-07-29T07:35:04;99254.69;;;27.87;30.59
58295;BME280;45705;55.592;37.460;2022-07-29T07:37:31;99252.03;;;26.08;34.63
58295;BME280;45705;55.592;37.460;2022-07-29T07:39:57;99256.09;;;27.48;33.53
58295;BME280;45705;55.592;37.460;2022-07-29T07:42:23;99251.56;;;28.32;31.67
58295;BME280;45705;55.592;37.460;2022-07-29T07:44:49;99248.31;;;27.86;32.21
58295;BME280;45705;55.592;37.460;2022-07-29T07:47:15;99242.97;;;28.23;30.81
58295;BME280;45705;55.592;37.460;2022-07-29T07:49:46;99253.81;;;27.08;32.27
58295;BME280;45705;55.592;37.460;2022-07-29T07:52:13;99245.06;;;27.37;32.29
58295;BME280;45705;55.592;37.460;2022-07-29T07:54:39;99257.34;;;26.37;34.39
58295;BME280;45705;55.592;37.460;2022-07-29T07:57:05;99256.84;;;26.04;33.94
58295;BME280;45705;55.592;37.460;2022-07-29T07:59:31;99261.88;;;25.64;34.55
58295;BME280;45705;55.592;37.460;2022-07-29T08:01:56;99258.25;;;26.23;34.08
58295;BME280;45705;55.592;37.460;2022-07-29T08:04:22;99256.91;;;25.89;34.60
58295;BME280;45705;55.592;37.460;2022-07-29T08:06:48;99261.34;;;25.83;35.91
58295;BME280;45705;55.592;37.460;2022-07-29T08:09:16;99267.88;;;25.59;36.77
58295;BME280;45705;55.592;37.460;2022-07-29T08:11:41;99260.97;;;25.00;36.23
58295;BME280;45705;55.592;37.460;2022-07-29T08:14:07;99264.31;;;25.54;35.95
58295;BME280;45705;55.592;37.460;2022-07-29T08:16:33;99263.63;;;25.40;36.06
58295;BME280;45705;55.592;37.460;2022-07-29T08:18:58;99260.44;;;25.38;36.21
58295;BME280;45705;55.592;37.460;2022-07-29T08:21:24;99263.06;;;24.60;38.42
58295;BME280;45705;55.592;37.460;2022-07-29T08:23:51;99260.56;;;25.05;38.07
58295;BME280;45705;55.592;37.460;2022-07-29T08:26:37;99267.75;;;24.99;37.32
58295;BME280;45705;55.592;37.460;2022-07-29T08:29:02;99255.81;;;24.95;37.00
58295;BME280;45705;55.592;37.460;2022-07-29T08:31:28;99257.88;;;24.84;36.74
58295;BME280;45705;55.592;37.460;2022-07-29T08:33:54;99252.38;;;24.62;37.01
58295;BME280;45705;55.592;37.460;2022-07-29T08:36:21;99262.31;;;24.13;36.79
58295;BME280;45705;55.592;37.460;2022-07-29T08:38:47;99257.56;;;24.03;36.67
58295;BME280;45705;55.592;37.460;2022-07-29T08:41:14;99252.81;;;23.92;37.45
58295;BME280;45705;55.592;37.460;2022-07-29T08:43:40;99262.66;;;23.72;38.40
58295;BME280;45705;55.592;37.460;2022-07-29T08:46:07;99252.00;;;23.85;38.16
58295;BME280;45705;55.592;37.460;2022-07-29T08:48:33;99250.41;;;24.16;38.13
58295;BME280;45705;55.592;37.460;2022-07-29T08:50:59;99250.41;;;24.09;38.58
58295;BME280;45705;55.592;37.460;2022-07-29T08:53:26;99260.72;;;24.23;38.47
58295;BME280;45705;55.592;37.460;2022-07-29T08:55:53;99253.56;;;24.47;38.25
58295;BME280;45705;55.592;37.460;2022-07-29T08:58:20;99255.56;;;24.07;38.22
58295;BME280;45705;55.592;37.460;2022-07-29T09:00:51;99253.56;;;24.61;37.24
58295;BME280;45705;55.592;37.460;2022-07-29T09:03:19;99255.94;;;24.63;37.53
58295;BME280;45705;55.592;37.460;2022-07-29T09:05:46;99249.59;;;24.62;36.51
58295;BME280;45705;55.592;37.460;2022-07-29T09:08:13;99244.00;;;24.69;37.09
58295;BME280;45705;55.592;37.460;2022-07-29T09:10:40;99246.41;;;24.38;38.41
58295;BME280;45705;55.592;37.460;2022-07-29T09:13:05;99250.41;;;24.23;39.06
58295;BME280;45705;55.592;37.460;2022-07-29T09:15:31;99257.94;;;24.19;39.76
58295;BME280;45705;55.592;37.460;2022-07-29T09:17:57;99253.59;;;24.22;39.67
58295;BME280;45705;55.592;37.460;2022-07-29T09:20:24;99251.16;;;24.56;37.92
58295;BME280;45705;55.592;37.460;2022-07-29T09:22:51;99255.56;;;24.10;38.15
58295;BME280;45705;55.592;37.460;2022-07-29T09:25:36;99259.06;;;23.46;39.37
58295;BME280;45705;55.592;37.460;2022-07-29T09:28:10;99265.28;;;23.07;39.80
58295;BME280;45705;55.592;37.460;2022-07-29T09:30:53;99260.63;;;23.40;40.09
58295;BME280;45705;55.592;37.460;2022-07-29T09:33:20;99258.28;;;23.60;39.62
58295;BME280;45705;55.592;37.460;2022-07-29T09:35:58;99263.91;;;23.85;38.81
58295;BME280;45705;55.592;37.460;2022-07-29T09:38:24;99266.28;;;24.01;37.58
58295;BME280;45705;55.592;37.460;2022-07-29T09:40:58;99258.34;;;24.28;35.96
58295;BME280;45705;55.592;37.460;2022-07-29T09:43:25;99259.13;;;23.82;35.41
58295;BME280;45705;55.592;37.460;2022-07-29T09:45:51;99262.31;;;23.84;35.46
58295;BME280;45705;55.592;37.460;2022-07-29T09:48:20;99265.41;;;23.65;36.64
58295;BME280;45705;55.592;37.460;2022-07-29T09:50:47;99270.84;;;23.18;38.02
58295;BME280;45705;55.592;37.460;2022-07-29T09:53:30;99273.19;;;23.12;38.34
58295;BME280;45705;55.592;37.460;2022-07-29T09:55:57;99261.84;;;23.61;37.98
58295;BME280;45705;55.592;37.460;2022-07-29T09:58:23;99269.34;;;23.42;38.55
58295;BME280;45705;55.592;37.460;2022-07-29T10:00:51;99265.38;;;23.43;38.73
58295;BME280;45705;55.592;37.460;2022-07-29T10:03:18;99266.19;;;23.47;38.39
58295;BME280;45705;55.592;37.460;2022-07-29T10:05:45;99268.94;;;23.40;38.66
58295;BME280;45705;55.592;37.460;2022-07-29T10:08:12;99268.56;;;23.38;38.65
58295;BME280;45705;55.592;37.460;2022-07-29T10:10:40;99264.53;;;23.25;38.47
58295;BME280;45705;55.592;37.460;2022-07-29T10:13:11;99267.38;;;23.46;38.07
58295;BME280;45705;55.592;37.460;2022-07-29T10:15:39;99254.38;;;23.79;38.12
58295;BME280;45705;55.592;37.460;2022-07-29T10:18:13;99262.31;;;23.84;37.57
58295;BME280;45705;55.592;37.460;2022-07-29T10:20:39;99257.56;;;23.99;36.33
58295;BME280;45705;55.592;37.460;2022-07-29T10:23:05;99254.38;;;24.15;36.43
58295;BME280;45705;55.592;37.460;2022-07-29T10:25:31;99251.97;;;24.38;36.12
58295;BME280;45705;55.592;37.460;2022-07-29T10:27:57;99259.16;;;24.18;36.27
58295;BME280;45705;55.592;37.460;2022-07-29T10:30:24;99251.19;;;24.42;36.23
58295;BME280;45705;55.592;37.460;2022-07-29T10:35:40;99259.91;;;24.36;35.93
58295;BME280;45705;55.592;37.460;2022-07-29T10:38:34;99247.97;;;24.72;35.42
58295;BME280;45705;55.592;37.460;2022-07-29T10:44:07;99247.97;;;24.50;36.11
58295;BME280;45705;55.592;37.460;2022-07-29T10:46:36;99246.41;;;24.46;35.91
58295;BME280;45705;55.592;37.460;2022-07-29T10:54:17;99265.47;;;24.11;37.13
58295;BME280;45705;55.592;37.460;2022-07-29T10:56:43;99255.97;;;23.91;37.29
58295;BME280;45705;55.592;37.460;2022-07-29T11:01:45;99261.53;;;24.12;37.97
58295;BME280;45705;55.592;37.460;2022-07-29T11:04:11;99263.91;;;24.14;38.21
58295;BME280;45705;55.592;37.460;2022-07-29T11:09:31;99263.91;;;24.00;37.97
58295;BME280;45705;55.592;37.460;2022-07-29T11:11:57;99262.31;;;24.06;36.48
58295;BME280;45705;55.592;37.460;2022-07-29T11:14:57;99263.91;;;24.17;36.04
58295;BME280;45705;55.592;37.460;2022-07-29T11:17:24;99259.94;;;24.01;36.79
58295;BME280;45705;55.592;37.460;2022-07-29T11:19:50;99263.09;;;23.92;37.71
58295;BME280;45705;55.592;37.460;2022-07-29T11:22:33;99255.97;;;24.05;37.52
58295;BME280;45705;55.592;37.460;2022-07-29T11:25:16;99255.16;;;24.19;36.55
58295;BME280;45705;55.592;37.460;2022-07-29T11:27:42;99241.63;;;24.43;36.03
58295;BME280;45705;55.592;37.460;2022-07-29T11:30:09;99255.94;;;24.45;35.98
58295;BME280;45705;55.592;37.460;2022-07-29T11:32:40;99251.94;;;24.74;35.92
58295;BME280;45705;55.592;37.460;2022-07-29T11:37:45;99250.22;;;25.02;36.15
58295;BME280;45705;55.592;37.460;2022-07-29T11:40:13;99253.16;;;24.45;37.12
58295;BME280;45705;55.592;37.460;2022-07-29T11:42:41;99253.53;;;24.68;36.72
58295;BME280;45705;55.592;37.460;2022-07-29T11:45:12;99255.16;;;24.62;36.84
58295;BME280;45705;55.592;37.460;2022-07-29T11:50:26;99264.63;;;24.75;36.74
58295;BME280;45705;55.592;37.460;2022-07-29T11:52:53;99254.72;;;24.67;36.79
58295;BME280;45705;55.592;37.460;2022-07-29T11:55:21;99255.16;;;24.55;38.64
58295;BME280;45705;55.592;37.460;2022-07-29T11:57:54;99254.25;;;24.87;38.88
58295;BME280;45705;55.592;37.460;2022-07-29T12:00:22;99249.44;;;25.05;38.42
58295;BME280;45705;55.592;37.460;2022-07-29T12:02:48;99255.13;;;24.69;37.79
58295;BME280;45705;55.592;37.460;2022-07-29T12:05:14;99262.72;;;24.51;37.45
58295;BME280;45705;55.592;37.460;2022-07-29T12:07:40;99259.94;;;24.22;38.08
58295;BME280;45705;55.592;37.460;2022-07-29T12:10:07;99246.81;;;24.55;37.94
58295;BME280;45705;55.592;37.460;2022-07-29T12:12:34;99245.63;;;24.49;36.79
58295;BME280;45705;55.592;37.460;2022-07-29T12:15:16;99246.44;;;24.31;36.91
58295;BME280;45705;55.592;37.460;2022-07-29T12:17:47;99245.63;;;24.49;36.56
58295;BME280;45705;55.592;37.460;2022-07-29T12:20:22;99247.59;;;24.52;36.46
58295;BME280;45705;55.592;37.460;2022-07-29T12:22:48;99240.06;;;24.56;36.76
58295;BME280;45705;55.592;37.460;2022-07-29T12:25:14;99248.00;;;24.32;37.62
58295;BME280;45705;55.592;37.460;2022-07-29T12:27:42;99246.00;;;24.33;37.19
58295;BME280;45705;55.592;37.460;2022-07-29T12:30:16;99241.63;;;24.50;37.28
58295;BME280;45705;55.592;37.460;2022-07-29T12:32:46;99241.59;;;24.68;37.03
58295;BME280;45705;55.592;37.460;2022-07-29T12:35:13;99242.31;;;24.97;36.53
58295;BME280;45705;55.592;37.460;2022-07-29T12:37:41;99246.31;;;24.85;37.04
58295;BME280;45705;55.592;37.460;2022-07-29T12:40:09;99241.56;;;24.86;36.85
58295;BME280;45705;55.592;37.460;2022-07-29T12:42:36;99240.81;;;24.74;37.51
58295;BME280;45705;55.592;37.460;2022-07-29T12:45:03;99243.19;;;24.80;36.90
58295;BME280;45705;55.592;37.460;2022-07-29T12:47:30;99238.75;;;24.93;37.08
58295;BME280;45705;55.592;37.460;2022-07-29T12:52:35;99244.81;;;24.59;37.34
58295;BME280;45705;55.592;37.460;2022-07-29T12:55:02;99233.69;;;24.55;37.40
58295;BME280;45705;55.592;37.460;2022-07-29T12:57:29;99230.50;;;24.50;38.06
58295;BME280;45705;55.592;37.460;2022-07-29T13:00:00;99229.28;;;24.80;37.75
58295;BME280;45705;55.592;37.460;2022-07-29T13:02:29;99243.19;;;24.72;37.57
58295;BME280;45705;55.592;37.460;2022-07-29T13:04:59;99233.72;;;24.52;38.46
58295;BME280;45705;55.592;37.460;2022-07-29T13:07:27;99230.44;;;24.86;38.01
58295;BME280;45705;55.592;37.460;2022-07-29T13:09:54;99232.34;;;25.07;37.64
58295;BME280;45705;55.592;37.460;2022-07-29T13:12:20;99235.06;;;25.28;37.11
58295;BME280;45705;55.592;37.460;2022-07-29T13:14:47;99228.00;;;24.95;37.36
58295;BME280;45705;55.592;37.460;2022-07-29T13:17:21;99228.91;;;24.70;37.52
58295;BME280;45705;55.592;37.460;2022-07-29T13:20:05;99238.09;;;24.53;38.42
58295;BME280;45705;55.592;37.460;2022-07-29T13:22:31;99229.72;;;24.46;39.09
58295;BME280;45705;55.592;37.460;2022-07-29T13:24:59;99238.50;;;24.33;37.93
58295;BME280;45705;55.592;37.460;2022-07-29T13:27:31;99236.06;;;24.50;37.60